sensor_id;sensor_type;location;lat;lon;timestamp;P1;durP1;ratioP1;P2;durP2;ratioP2
57337;SDS011;43173;50.980;18.204;2023-04-03T00:00:28;5.20;;;2.10;;
57337;SDS011;43173;50.980;18.204;2023-04-03T00:02:55;5.10;;;2.20;;
57337;SDS011;43173;50.980;18.204;2023-04-03T00:05:20;5.40;;;2.00;;
57337;SDS011;43173;50.980;18.204;2023-04-03T00:07:46;7.00;;;2.20;;
57337;SDS011;43173;50.980;18.204;2023-04-03T00:10:12;6.60;;;1.80;;
57337;SDS011;43173;50.980;18.204;2023-04-03T00:12:39;8.50;;;2.40;;
57337;SDS011;43173;50.980;18.204;2023-04-03T00:15:05;9.90;;;2.50;;
57337;SDS011;43173;50.980;18.204;2023-04-03T00:17:31;6.90;;;2.50;;
57337;SDS011;43173;50.980;18.204;2023-04-03T00:19:56;8.80;;;3.00;;
57337;SDS011;43173;50.980;18.204;2023-04-03T00:22:22;5.20;;;2.20;;
57337;SDS011;43173;50.980;18.204;2023-04-03T00:24:48;5.90;;;1.90;;
57337;SDS011;43173;50.980;18.204;2023-04-03T00:27:13;6.90;;;2.00;;
57337;SDS011;43173;50.980;18.204;2023-04-03T00:29:41;9.30;;;2.20;;
57337;SDS011;43173;50.980;18.204;2023-04-03T00:32:06;4.30;;;2.00;;
57337;SDS011;43173;50.980;18.204;2023-04-03T00:34:32;3.60;;;2.00;;
57337;SDS011;43173;50.980;18.204;2023-04-03T00:36:58;5.30;;;1.90;;
57337;SDS011;43173;50.980;18.204;2023-04-03T00:39:23;9.10;;;2.20;;
57337;SDS011;43173;50.980;18.204;2023-04-03T00:41:49;5.60;;;2.10;;
57337;SDS011;43173;50.980;18.204;2023-04-03T00:44:22;8.20;;;2.00;;
57337;SDS011;43173;50.980;18.204;2023-04-03T00:47:04;6.70;;;2.10;;
57337;SDS011;43173;50.980;18.204;2023-04-03T00:49:31;5.20;;;2.20;;
57337;SDS011;43173;50.980;18.204;2023-04-03T00:51:57;8.60;;;2.10;;
57337;SDS011;43173;50.980;18.204;2023-04-03T00:54:23;6.80;;;2.40;;
57337;SDS011;43173;50.980;18.204;2023-04-03T00:56:50;4.60;;;1.90;;
57337;SDS011;43173;50.980;18.204;2023-04-03T00:59:18;5.00;;;1.70;;
57337;SDS011;43173;50.980;18.204;2023-04-03T01:01:50;5.80;;;2.00;;
57337;SDS011;43173;50.980;18.204;2023-04-03T01:07:04;8.10;;;2.70;;
57337;SDS011;43173;50.980;18.204;2023-04-03T01:09:32;5.60;;;2.30;;
57337;SDS011;43173;50.980;18.204;2023-04-03T01:14:45;7.60;;;2.40;;
57337;SDS011;43173;50.980;18.204;2023-04-03T01:25:45;4.70;;;2.30;;
57337;SDS011;43173;50.980;18.204;2023-04-03T01:28:35;7.90;;;2.40;;
57337;SDS011;43173;50.980;18.204;2023-04-03T01:33:48;10.30;;;2.60;;
57337;SDS011;43173;50.980;18.204;2023-04-03T01:36:15;5.50;;;2.10;;
57337;SDS011;43173;50.980;18.204;2023-04-03T01:38:43;7.60;;;2.90;;
57337;SDS011;43173;50.980;18.204;2023-04-03T01:41:09;6.00;;;2.70;;
57337;SDS011;43173;50.980;18.204;2023-04-03T01:43:34;7.80;;;2.60;;
57337;SDS011;43173;50.980;18.204;2023-04-03T01:46:00;6.60;;;2.60;;
57337;SDS011;43173;50.980;18.204;2023-04-03T01:48:26;9.30;;;3.20;;
57337;SDS011;43173;50.980;18.204;2023-04-03T01:50:51;5.80;;;2.60;;
57337;SDS011;43173;50.980;18.204;2023-04-03T01:53:17;8.30;;;3.30;;
57337;SDS011;43173;50.980;18.204;2023-04-03T01:55:43;10.20;;;3.90;;
57337;SDS011;43173;50.980;18.204;2023-04-03T01:58:08;10.40;;;3.70;;
57337;SDS011;43173;50.980;18.204;2023-04-03T02:00:34;7.60;;;3.20;;
57337;SDS011;43173;50.980;18.204;2023-04-03T02:02:59;8.00;;;3.70;;
57337;SDS011;43173;50.980;18.204;2023-04-03T02:05:25;7.40;;;3.00;;
57337;SDS011;43173;50.980;18.204;2023-04-03T02:07:51;6.90;;;3.00;;
57337;SDS011;43173;50.980;18.204;2023-04-03T02:10:16;9.10;;;3.40;;
57337;SDS011;43173;50.980;18.204;2023-04-03T02:12:42;12.10;;;3.70;;
57337;SDS011;43173;50.980;18.204;2023-04-03T02:15:07;7.50;;;3.30;;
57337;SDS011;43173;50.980;18.204;2023-04-03T02:17:34;13.80;;;4.10;;
57337;SDS011;43173;50.980;18.204;2023-04-03T02:20:00;11.90;;;4.30;;
57337;SDS011;43173;50.980;18.204;2023-04-03T02:22:28;6.60;;;2.70;;
57337;SDS011;43173;50.980;18.204;2023-04-03T02:24:54;10.30;;;3.80;;
57337;SDS011;43173;50.980;18.204;2023-04-03T02:27:19;10.60;;;3.00;;
57337;SDS011;43173;50.980;18.204;2023-04-03T02:29:45;10.40;;;3.60;;
57337;SDS011;43173;50.980;18.204;2023-04-03T02:32:11;7.10;;;3.10;;
57337;SDS011;43173;50.980;18.204;2023-04-03T02:34:36;9.40;;;3.70;;
57337;SDS011;43173;50.980;18.204;2023-04-03T02:37:02;12.30;;;3.70;;
57337;SDS011;43173;50.980;18.204;2023-04-03T02:39:27;13.70;;;4.60;;
57337;SDS011;43173;50.980;18.204;2023-04-03T02:41:53;13.10;;;4.20;;
57337;SDS011;43173;50.980;18.204;2023-04-03T02:44:19;10.80;;;4.30;;
57337;SDS011;43173;50.980;18.204;2023-04-03T02:46:45;9.30;;;3.60;;
57337;SDS011;43173;50.980;18.204;2023-04-03T02:49:10;9.80;;;4.10;;
57337;SDS011;43173;50.980;18.204;2023-04-03T02:51:36;11.00;;;4.50;;
57337;SDS011;43173;50.980;18.204;2023-04-03T02:54:02;9.20;;;4.20;;
57337;SDS011;43173;50.980;18.204;2023-04-03T02:56:27;9.40;;;4.70;;
57337;SDS011;43173;50.980;18.204;2023-04-03T02:58:53;17.30;;;6.10;;
57337;SDS011;43173;50.980;18.204;2023-04-03T03:01:19;16.30;;;6.60;;
57337;SDS011;43173;50.980;18.204;2023-04-03T03:03:45;14.50;;;7.20;;
57337;SDS011;43173;50.980;18.204;2023-04-03T03:06:12;17.90;;;7.00;;
57337;SDS011;43173;50.980;18.204;2023-04-03T03:08:39;12.80;;;6.80;;
57337;SDS011;43173;50.980;18.204;2023-04-03T03:11:05;13.30;;;6.20;;
57337;SDS011;43173;50.980;18.204;2023-04-03T03:13:32;15.40;;;7.20;;
57337;SDS011;43173;50.980;18.204;2023-04-03T03:15:58;21.30;;;6.90;;
57337;SDS011;43173;50.980;18.204;2023-04-03T03:18:24;17.10;;;5.80;;
57337;SDS011;43173;50.980;18.204;2023-04-03T03:20:53;13.30;;;5.70;;
57337;SDS011;43173;50.980;18.204;2023-04-03T03:23:21;11.90;;;5.00;;
57337;SDS011;43173;50.980;18.204;2023-04-03T03:25:48;11.30;;;5.30;;
57337;SDS011;43173;50.980;18.204;2023-04-03T03:28:13;14.50;;;5.30;;
57337;SDS011;43173;50.980;18.204;2023-04-03T03:30:40;11.20;;;5.10;;
57337;SDS011;43173;50.980;18.204;2023-04-03T03:33:05;12.70;;;4.60;;
57337;SDS011;43173;50.980;18.204;2023-04-03T03:35:32;12.10;;;4.20;;
57337;SDS011;43173;50.980;18.204;2023-04-03T03:37:58;10.00;;;5.00;;
57337;SDS011;43173;50.980;18.204;2023-04-03T03:40:23;13.00;;;4.70;;
57337;SDS011;43173;50.980;18.204;2023-04-03T03:42:49;13.00;;;5.50;;
57337;SDS011;43173;50.980;18.204;2023-04-03T03:45:14;13.70;;;5.20;;
57337;SDS011;43173;50.980;18.204;2023-04-03T03:47:40;13.80;;;4.70;;
57337;SDS011;43173;50.980;18.204;2023-04-03T03:50:06;12.60;;;4.70;;
57337;SDS011;43173;50.980;18.204;2023-04-03T03:52:32;14.50;;;5.00;;
57337;SDS011;43173;50.980;18.204;2023-04-03T03:54:58;10.30;;;4.50;;
57337;SDS011;43173;50.980;18.204;2023-04-03T03:57:23;9.30;;;5.00;;
57337;SDS011;43173;50.980;18.204;2023-04-03T03:59:49;12.10;;;5.40;;
57337;SDS011;43173;50.980;18.204;2023-04-03T04:02:16;9.90;;;4.40;;
57337;SDS011;43173;50.980;18.204;2023-04-03T04:04:42;9.00;;;4.40;;
57337;SDS011;43173;50.980;18.204;2023-04-03T04:07:08;10.60;;;4.70;;
57337;SDS011;43173;50.980;18.204;2023-04-03T04:09:33;11.10;;;5.20;;
57337;SDS011;43173;50.980;18.204;2023-04-03T04:11:59;11.60;;;5.40;;
57337;SDS011;43173;50.980;18.204;2023-04-03T04:14:25;13.40;;;5.00;;
57337;SDS011;43173;50.980;18.204;2023-04-03T04:16:50;13.20;;;5.50;;
57337;SDS011;43173;50.980;18.204;2023-04-03T04:19:16;14.90;;;6.20;;
57337;SDS011;43173;50.980;18.204;2023-04-03T04:21:42;13.50;;;5.60;;
57337;SDS011;43173;50.980;18.204;2023-04-03T04:24:08;16.40;;;5.90;;
57337;SDS011;43173;50.980;18.204;2023-04-03T04:26:34;11.40;;;5.40;;
57337;SDS011;43173;50.980;18.204;2023-04-03T04:29:00;11.30;;;5.50;;
57337;SDS011;43173;50.980;18.204;2023-04-03T04:31:26;12.80;;;4.80;;
57337;SDS011;43173;50.980;18.204;2023-04-03T04:33:52;15.40;;;6.20;;
57337;SDS011;43173;50.980;18.204;2023-04-03T04:36:18;12.80;;;5.20;;
57337;SDS011;43173;50.980;18.204;2023-04-03T04:38:45;12.20;;;5.50;;
57337;SDS011;43173;50.980;18.204;2023-04-03T04:41:11;12.10;;;4.80;;
57337;SDS011;43173;50.980;18.204;2023-04-03T04:43:36;11.90;;;5.40;;
57337;SDS011;43173;50.980;18.204;2023-04-03T04:46:06;17.00;;;5.90;;
57337;SDS011;43173;50.980;18.204;2023-04-03T04:48:34;13.20;;;5.60;;
57337;SDS011;43173;50.980;18.204;2023-04-03T04:51:00;10.90;;;4.70;;
57337;SDS011;43173;50.980;18.204;2023-04-03T04:53:26;15.00;;;5.50;;
57337;SDS011;43173;50.980;18.204;2023-04-03T04:55:52;12.40;;;5.30;;
57337;SDS011;43173;50.980;18.204;2023-04-03T04:58:18;14.80;;;5.70;;
57337;SDS011;43173;50.980;18.204;2023-04-03T05:00:45;13.10;;;5.60;;
57337;SDS011;43173;50.980;18.204;2023-04-03T05:03:10;12.00;;;4.80;;
57337;SDS011;43173;50.980;18.204;2023-04-03T05:05:36;15.90;;;5.70;;
57337;SDS011;43173;50.980;18.204;2023-04-03T05:08:03;14.50;;;5.40;;
57337;SDS011;43173;50.980;18.204;2023-04-03T05:10:29;11.50;;;4.70;;
57337;SDS011;43173;50.980;18.204;2023-04-03T05:12:55;15.30;;;5.00;;
57337;SDS011;43173;50.980;18.204;2023-04-03T05:15:20;13.00;;;5.00;;
57337;SDS011;43173;50.980;18.204;2023-04-03T05:17:46;15.20;;;5.00;;
57337;SDS011;43173;50.980;18.204;2023-04-03T05:20:11;12.30;;;5.30;;
57337;SDS011;43173;50.980;18.204;2023-04-03T05:22:37;11.40;;;5.20;;
57337;SDS011;43173;50.980;18.204;2023-04-03T05:25:03;14.60;;;5.30;;
57337;SDS011;43173;50.980;18.204;2023-04-03T05:27:30;13.40;;;5.30;;
57337;SDS011;43173;50.980;18.204;2023-04-03T05:29:55;14.80;;;4.90;;
57337;SDS011;43173;50.980;18.204;2023-04-03T05:32:22;9.00;;;4.90;;
57337;SDS011;43173;50.980;18.204;2023-04-03T05:34:48;11.30;;;5.40;;
57337;SDS011;43173;50.980;18.204;2023-04-03T05:37:13;13.30;;;5.40;;
57337;SDS011;43173;50.980;18.204;2023-04-03T05:39:39;15.30;;;5.90;;
57337;SDS011;43173;50.980;18.204;2023-04-03T05:42:06;13.10;;;5.20;;
57337;SDS011;43173;50.980;18.204;2023-04-03T05:44:32;13.30;;;5.70;;
57337;SDS011;43173;50.980;18.204;2023-04-03T05:46:58;14.20;;;4.10;;
57337;SDS011;43173;50.980;18.204;2023-04-03T05:49:24;13.50;;;5.30;;
57337;SDS011;43173;50.980;18.204;2023-04-03T05:51:50;12.70;;;5.40;;
57337;SDS011;43173;50.980;18.204;2023-04-03T05:56:58;13.00;;;5.00;;
57337;SDS011;43173;50.980;18.204;2023-04-03T05:59:24;11.50;;;5.00;;
57337;SDS011;43173;50.980;18.204;2023-04-03T06:01:50;13.30;;;4.80;;
57337;SDS011;43173;50.980;18.204;2023-04-03T06:04:16;10.20;;;4.70;;
57337;SDS011;43173;50.980;18.204;2023-04-03T06:06:44;10.00;;;4.60;;
57337;SDS011;43173;50.980;18.204;2023-04-03T06:09:15;13.40;;;5.00;;
57337;SDS011;43173;50.980;18.204;2023-04-03T06:11:41;10.80;;;4.40;;
57337;SDS011;43173;50.980;18.204;2023-04-03T06:14:07;12.00;;;4.50;;
57337;SDS011;43173;50.980;18.204;2023-04-03T06:16:34;12.20;;;4.10;;
57337;SDS011;43173;50.980;18.204;2023-04-03T06:19:00;10.70;;;4.40;;
57337;SDS011;43173;50.980;18.204;2023-04-03T06:21:26;13.10;;;4.50;;
57337;SDS011;43173;50.980;18.204;2023-04-03T06:23:52;9.50;;;4.60;;
57337;SDS011;43173;50.980;18.204;2023-04-03T06:26:17;9.50;;;3.30;;
57337;SDS011;43173;50.980;18.204;2023-04-03T06:28:43;7.70;;;3.80;;
57337;SDS011;43173;50.980;18.204;2023-04-03T06:31:09;8.90;;;3.40;;
57337;SDS011;43173;50.980;18.204;2023-04-03T06:33:34;10.70;;;4.00;;
57337;SDS011;43173;50.980;18.204;2023-04-03T06:36:03;13.70;;;3.70;;
57337;SDS011;43173;50.980;18.204;2023-04-03T06:38:30;11.00;;;3.70;;
57337;SDS011;43173;50.980;18.204;2023-04-03T06:40:56;9.20;;;3.40;;
57337;SDS011;43173;50.980;18.204;2023-04-03T06:43:22;7.60;;;3.50;;
57337;SDS011;43173;50.980;18.204;2023-04-03T06:45:47;8.70;;;2.80;;
57337;SDS011;43173;50.980;18.204;2023-04-03T06:48:13;6.40;;;2.60;;
57337;SDS011;43173;50.980;18.204;2023-04-03T06:50:39;8.00;;;3.30;;
57337;SDS011;43173;50.980;18.204;2023-04-03T06:53:05;5.90;;;3.00;;
57337;SDS011;43173;50.980;18.204;2023-04-03T06:55:32;8.50;;;2.80;;
57337;SDS011;43173;50.980;18.204;2023-04-03T06:57:58;5.40;;;2.80;;
57337;SDS011;43173;50.980;18.204;2023-04-03T07:00:24;6.00;;;2.80;;
57337;SDS011;43173;50.980;18.204;2023-04-03T07:02:50;8.70;;;2.60;;
57337;SDS011;43173;50.980;18.204;2023-04-03T07:05:16;5.50;;;2.60;;
57337;SDS011;43173;50.980;18.204;2023-04-03T07:07:43;8.90;;;3.70;;
57337;SDS011;43173;50.980;18.204;2023-04-03T07:10:09;6.90;;;3.20;;
57337;SDS011;43173;50.980;18.204;2023-04-03T07:12:36;9.10;;;3.20;;
57337;SDS011;43173;50.980;18.204;2023-04-03T07:15:03;5.60;;;2.50;;
57337;SDS011;43173;50.980;18.204;2023-04-03T07:17:30;6.90;;;2.70;;
57337;SDS011;43173;50.980;18.204;2023-04-03T07:19:56;7.70;;;2.80;;
57337;SDS011;43173;50.980;18.204;2023-04-03T07:22:22;8.00;;;2.60;;
57337;SDS011;43173;50.980;18.204;2023-04-03T07:24:48;7.50;;;2.80;;
57337;SDS011;43173;50.980;18.204;2023-04-03T07:27:13;7.20;;;3.40;;
57337;SDS011;43173;50.980;18.204;2023-04-03T07:29:39;8.80;;;2.70;;
57337;SDS011;43173;50.980;18.204;2023-04-03T07:32:05;8.20;;;2.80;;
57337;SDS011;43173;50.980;18.204;2023-04-03T07:34:32;4.70;;;2.40;;
57337;SDS011;43173;50.980;18.204;2023-04-03T07:36:58;6.10;;;2.60;;
57337;SDS011;43173;50.980;18.204;2023-04-03T07:39:25;7.30;;;2.90;;
57337;SDS011;43173;50.980;18.204;2023-04-03T07:41:50;7.30;;;3.10;;
57337;SDS011;43173;50.980;18.204;2023-04-03T07:44:17;5.00;;;2.30;;
57337;SDS011;43173;50.980;18.204;2023-04-03T07:46:42;9.00;;;3.00;;
57337;SDS011;43173;50.980;18.204;2023-04-03T07:49:08;6.10;;;2.60;;
57337;SDS011;43173;50.980;18.204;2023-04-03T07:51:34;5.60;;;2.30;;
57337;SDS011;43173;50.980;18.204;2023-04-03T07:54:00;8.00;;;2.70;;
57337;SDS011;43173;50.980;18.204;2023-04-03T07:56:26;9.30;;;2.90;;
57337;SDS011;43173;50.980;18.204;2023-04-03T07:58:51;5.60;;;2.20;;
57337;SDS011;43173;50.980;18.204;2023-04-03T08:01:17;7.10;;;2.20;;
57337;SDS011;43173;50.980;18.204;2023-04-03T08:03:43;9.00;;;2.60;;
57337;SDS011;43173;50.980;18.204;2023-04-03T08:06:08;5.00;;;2.00;;
57337;SDS011;43173;50.980;18.204;2023-04-03T08:08:34;7.00;;;2.70;;
57337;SDS011;43173;50.980;18.204;2023-04-03T08:11:00;8.40;;;2.70;;
57337;SDS011;43173;50.980;18.204;2023-04-03T08:13:28;7.10;;;2.50;;
57337;SDS011;43173;50.980;18.204;2023-04-03T08:15:55;6.20;;;2.00;;
57337;SDS011;43173;50.980;18.204;2023-04-03T08:18:23;4.10;;;1.50;;
57337;SDS011;43173;50.980;18.204;2023-04-03T08:20:50;3.90;;;1.70;;
57337;SDS011;43173;50.980;18.204;2023-04-03T08:23:18;5.40;;;2.20;;
57337;SDS011;43173;50.980;18.204;2023-04-03T08:25:44;3.10;;;1.60;;
57337;SDS011;43173;50.980;18.204;2023-04-03T08:28:10;6.20;;;1.90;;
57337;SDS011;43173;50.980;18.204;2023-04-03T08:30:38;4.50;;;1.50;;
57337;SDS011;43173;50.980;18.204;2023-04-03T08:33:06;5.10;;;1.80;;
57337;SDS011;43173;50.980;18.204;2023-04-03T08:35:32;4.60;;;1.80;;
57337;SDS011;43173;50.980;18.204;2023-04-03T08:37:58;7.50;;;2.80;;
57337;SDS011;43173;50.980;18.204;2023-04-03T08:40:23;6.20;;;2.40;;
57337;SDS011;43173;50.980;18.204;2023-04-03T08:45:50;8.20;;;2.40;;
57337;SDS011;43173;50.980;18.204;2023-04-03T08:48:22;8.60;;;2.40;;
57337;SDS011;43173;50.980;18.204;2023-04-03T08:50:55;8.00;;;2.50;;
57337;SDS011;43173;50.980;18.204;2023-04-03T08:53:27;6.50;;;1.70;;
57337;SDS011;43173;50.980;18.204;2023-04-03T08:55:56;4.30;;;1.50;;
57337;SDS011;43173;50.980;18.204;2023-04-03T08:58:27;7.90;;;2.30;;
57337;SDS011;43173;50.980;18.204;2023-04-03T09:00:56;5.00;;;1.50;;
57337;SDS011;43173;50.980;18.204;2023-04-03T09:03:24;3.60;;;1.70;;
57337;SDS011;43173;50.980;18.204;2023-04-03T09:10:50;3.00;;;1.40;;
57337;SDS011;43173;50.980;18.204;2023-04-03T09:15:50;4.20;;;1.50;;
57337;SDS011;43173;50.980;18.204;2023-04-03T09:23:44;3.90;;;1.50;;
57337;SDS011;43173;50.980;18.204;2023-04-03T09:26:18;3.60;;;1.60;;
57337;SDS011;43173;50.980;18.204;2023-04-03T09:28:47;7.00;;;1.60;;
57337;SDS011;43173;50.980;18.204;2023-04-03T09:33:59;3.80;;;1.50;;
57337;SDS011;43173;50.980;18.204;2023-04-03T09:39:12;2.50;;;1.50;;
57337;SDS011;43173;50.980;18.204;2023-04-03T09:41:43;3.80;;;1.30;;
57337;SDS011;43173;50.980;18.204;2023-04-03T09:44:22;3.70;;;1.40;;
57337;SDS011;43173;50.980;18.204;2023-04-03T09:46:50;3.80;;;1.40;;
57337;SDS011;43173;50.980;18.204;2023-04-03T09:49:16;5.20;;;1.60;;
57337;SDS011;43173;50.980;18.204;2023-04-03T09:51:42;6.00;;;2.00;;
57337;SDS011;43173;50.980;18.204;2023-04-03T09:56:54;3.70;;;1.80;;
57337;SDS011;43173;50.980;18.204;2023-04-03T09:59:21;3.00;;;1.60;;
57337;SDS011;43173;50.980;18.204;2023-04-03T10:04:46;4.00;;;1.80;;
57337;SDS011;43173;50.980;18.204;2023-04-03T10:07:26;3.90;;;1.30;;
57337;SDS011;43173;50.980;18.204;2023-04-03T10:10:15;3.00;;;1.50;;
57337;SDS011;43173;50.980;18.204;2023-04-03T10:12:43;2.60;;;1.50;;
57337;SDS011;43173;50.980;18.204;2023-04-03T10:15:13;3.50;;;1.70;;
57337;SDS011;43173;50.980;18.204;2023-04-03T10:23:15;2.80;;;1.60;;
57337;SDS011;43173;50.980;18.204;2023-04-03T10:31:20;7.50;;;1.80;;
57337;SDS011;43173;50.980;18.204;2023-04-03T10:39:30;4.60;;;1.80;;
57337;SDS011;43173;50.980;18.204;2023-04-03T11:02:07;6.90;;;2.30;;
57337;SDS011;43173;50.980;18.204;2023-04-03T11:04:40;4.10;;;1.60;;
57337;SDS011;43173;50.980;18.204;2023-04-03T11:07:15;5.30;;;2.30;;
57337;SDS011;43173;50.980;18.204;2023-04-03T11:24:31;5.40;;;2.00;;
57337;SDS011;43173;50.980;18.204;2023-04-03T11:26:58;2.60;;;1.50;;
57337;SDS011;43173;50.980;18.204;2023-04-03T11:29:35;4.50;;;2.20;;
57337;SDS011;43173;50.980;18.204;2023-04-03T11:32:08;4.40;;;2.10;;
57337;SDS011;43173;50.980;18.204;2023-04-03T11:34:40;4.40;;;1.90;;
57337;SDS011;43173;50.980;18.204;2023-04-03T11:37:43;5.70;;;2.30;;
57337;SDS011;43173;50.980;18.204;2023-04-03T11:40:05;4.70;;;2.20;;
57337;SDS011;43173;50.980;18.204;2023-04-03T11:42:38;3.30;;;1.90;;
57337;SDS011;43173;50.980;18.204;2023-04-03T11:47:50;3.70;;;1.90;;
57337;SDS011;43173;50.980;18.204;2023-04-03T12:04:05;4.30;;;2.30;;
57337;SDS011;43173;50.980;18.204;2023-04-03T12:08:58;6.00;;;2.80;;
57337;SDS011;43173;50.980;18.204;2023-04-03T12:11:30;5.90;;;2.30;;
57337;SDS011;43173;50.980;18.204;2023-04-03T12:22:06;4.80;;;2.20;;
57337;SDS011;43173;50.980;18.204;2023-04-03T12:24:37;5.20;;;2.10;;
57337;SDS011;43173;50.980;18.204;2023-04-03T12:30:07;5.60;;;1.80;;
57337;SDS011;43173;50.980;18.204;2023-04-03T12:35:17;5.90;;;2.30;;
57337;SDS011;43173;50.980;18.204;2023-04-03T12:46:36;2.80;;;1.70;;
57337;SDS011;43173;50.980;18.204;2023-04-03T12:49:22;4.50;;;2.10;;
57337;SDS011;43173;50.980;18.204;2023-04-03T12:52:16;5.50;;;2.30;;
57337;SDS011;43173;50.980;18.204;2023-04-03T12:54:55;3.50;;;1.80;;
57337;SDS011;43173;50.980;18.204;2023-04-03T12:57:26;6.60;;;1.90;;
57337;SDS011;43173;50.980;18.204;2023-04-03T12:59:55;5.50;;;2.10;;
57337;SDS011;43173;50.980;18.204;2023-04-03T13:02:29;5.20;;;2.50;;
57337;SDS011;43173;50.980;18.204;2023-04-03T13:04:57;6.30;;;2.50;;
57337;SDS011;43173;50.980;18.204;2023-04-03T13:07:25;4.10;;;2.00;;
57337;SDS011;43173;50.980;18.204;2023-04-03T13:12:44;4.10;;;1.80;;
57337;SDS011;43173;50.980;18.204;2023-04-03T13:15:16;3.10;;;1.90;;
57337;SDS011;43173;50.980;18.204;2023-04-03T13:17:59;6.00;;;2.60;;
57337;SDS011;43173;50.980;18.204;2023-04-03T13:20:26;9.20;;;4.00;;
57337;SDS011;43173;50.980;18.204;2023-04-03T13:22:55;6.40;;;3.30;;
57337;SDS011;43173;50.980;18.204;2023-04-03T13:25:26;11.70;;;6.50;;
57337;SDS011;43173;50.980;18.204;2023-04-03T13:27:54;4.70;;;2.40;;
57337;SDS011;43173;50.980;18.204;2023-04-03T13:30:21;3.90;;;1.90;;
57337;SDS011;43173;50.980;18.204;2023-04-03T13:32:50;3.60;;;2.00;;
57337;SDS011;43173;50.980;18.204;2023-04-03T13:40:54;7.10;;;3.40;;
57337;SDS011;43173;50.980;18.204;2023-04-03T13:43:24;5.20;;;4.00;;
57337;SDS011;43173;50.980;18.204;2023-04-03T13:45:57;8.80;;;7.30;;
57337;SDS011;43173;50.980;18.204;2023-04-03T13:48:26;4.70;;;3.30;;
57337;SDS011;43173;50.980;18.204;2023-04-03T13:53:25;5.30;;;2.70;;
57337;SDS011;43173;50.980;18.204;2023-04-03T13:58:22;5.00;;;3.00;;
57337;SDS011;43173;50.980;18.204;2023-04-03T14:00:50;9.10;;;5.90;;
57337;SDS011;43173;50.980;18.204;2023-04-03T14:05:46;5.00;;;2.80;;
57337;SDS011;43173;50.980;18.204;2023-04-03T14:08:12;5.80;;;2.80;;
57337;SDS011;43173;50.980;18.204;2023-04-03T14:10:37;4.20;;;2.60;;
57337;SDS011;43173;50.980;18.204;2023-04-03T14:13:04;14.80;;;6.80;;
57337;SDS011;43173;50.980;18.204;2023-04-03T14:15:30;14.00;;;7.40;;
57337;SDS011;43173;50.980;18.204;2023-04-03T14:17:56;6.50;;;4.10;;
57337;SDS011;43173;50.980;18.204;2023-04-03T14:20:24;4.10;;;2.00;;
57337;SDS011;43173;50.980;18.204;2023-04-03T14:22:51;3.50;;;1.80;;
57337;SDS011;43173;50.980;18.204;2023-04-03T14:25:17;4.60;;;1.90;;
57337;SDS011;43173;50.980;18.204;2023-04-03T14:27:45;3.50;;;1.50;;
57337;SDS011;43173;50.980;18.204;2023-04-03T14:32:43;3.40;;;1.70;;
57337;SDS011;43173;50.980;18.204;2023-04-03T14:35:09;3.70;;;1.80;;
57337;SDS011;43173;50.980;18.204;2023-04-03T14:37:35;3.40;;;1.70;;
57337;SDS011;43173;50.980;18.204;2023-04-03T14:40:01;3.40;;;1.90;;
57337;SDS011;43173;50.980;18.204;2023-04-03T14:42:30;3.30;;;1.60;;
57337;SDS011;43173;50.980;18.204;2023-04-03T14:44:58;4.60;;;2.60;;
57337;SDS011;43173;50.980;18.204;2023-04-03T14:47:26;4.60;;;2.60;;
57337;SDS011;43173;50.980;18.204;2023-04-03T14:49:53;4.40;;;2.30;;
57337;SDS011;43173;50.980;18.204;2023-04-03T14:52:22;3.00;;;1.70;;
57337;SDS011;43173;50.980;18.204;2023-04-03T14:54:48;3.30;;;2.10;;
57337;SDS011;43173;50.980;18.204;2023-04-03T14:57:15;3.70;;;1.80;;
57337;SDS011;43173;50.980;18.204;2023-04-03T14:59:42;2.50;;;1.40;;
57337;SDS011;43173;50.980;18.204;2023-04-03T15:04:56;4.30;;;1.50;;
57337;SDS011;43173;50.980;18.204;2023-04-03T15:07:22;3.10;;;1.70;;
57337;SDS011;43173;50.980;18.204;2023-04-03T15:09:48;4.60;;;2.60;;
57337;SDS011;43173;50.980;18.204;2023-04-03T15:12:15;3.30;;;1.50;;
57337;SDS011;43173;50.980;18.204;2023-04-03T15:14:40;3.50;;;1.80;;
57337;SDS011;43173;50.980;18.204;2023-04-03T15:17:06;4.00;;;1.80;;
57337;SDS011;43173;50.980;18.204;2023-04-03T15:19:39;4.00;;;1.80;;
57337;SDS011;43173;50.980;18.204;2023-04-03T15:22:05;4.20;;;2.00;;
57337;SDS011;43173;50.980;18.204;2023-04-03T15:24:31;4.80;;;2.20;;
57337;SDS011;43173;50.980;18.204;2023-04-03T15:26:57;10.10;;;5.30;;
57337;SDS011;43173;50.980;18.204;2023-04-03T15:29:23;11.90;;;5.50;;
57337;SDS011;43173;50.980;18.204;2023-04-03T15:31:48;7.10;;;3.30;;
57337;SDS011;43173;50.980;18.204;2023-04-03T15:34:18;3.60;;;2.10;;
57337;SDS011;43173;50.980;18.204;2023-04-03T15:36:43;9.10;;;3.30;;
57337;SDS011;43173;50.980;18.204;2023-04-03T15:39:09;9.30;;;2.90;;
57337;SDS011;43173;50.980;18.204;2023-04-03T15:41:35;11.60;;;3.70;;
57337;SDS011;43173;50.980;18.204;2023-04-03T15:44:00;30.50;;;10.20;;
57337;SDS011;43173;50.980;18.204;2023-04-03T15:46:26;19.40;;;7.90;;
57337;SDS011;43173;50.980;18.204;2023-04-03T15:48:52;11.00;;;5.10;;
57337;SDS011;43173;50.980;18.204;2023-04-03T15:51:17;10.10;;;4.20;;
57337;SDS011;43173;50.980;18.204;2023-04-03T15:53:43;10.30;;;4.50;;
57337;SDS011;43173;50.980;18.204;2023-04-03T15:56:09;24.20;;;8.90;;
57337;SDS011;43173;50.980;18.204;2023-04-03T15:58:35;12.40;;;4.60;;
57337;SDS011;43173;50.980;18.204;2023-04-03T16:01:01;13.30;;;5.80;;
57337;SDS011;43173;50.980;18.204;2023-04-03T16:03:27;14.60;;;5.80;;
57337;SDS011;43173;50.980;18.204;2023-04-03T16:05:53;8.20;;;5.00;;
57337;SDS011;43173;50.980;18.204;2023-04-03T16:08:19;4.00;;;2.70;;
57337;SDS011;43173;50.980;18.204;2023-04-03T16:10:45;5.30;;;2.70;;
57337;SDS011;43173;50.980;18.204;2023-04-03T16:13:12;4.90;;;2.20;;
57337;SDS011;43173;50.980;18.204;2023-04-03T16:15:39;4.40;;;2.10;;
57337;SDS011;43173;50.980;18.204;2023-04-03T16:18:04;5.30;;;2.80;;
57337;SDS011;43173;50.980;18.204;2023-04-03T16:20:30;3.60;;;2.20;;
57337;SDS011;43173;50.980;18.204;2023-04-03T16:22:57;4.40;;;2.40;;
57337;SDS011;43173;50.980;18.204;2023-04-03T16:25:24;3.80;;;2.40;;
57337;SDS011;43173;50.980;18.204;2023-04-03T16:27:49;5.30;;;2.50;;
57337;SDS011;43173;50.980;18.204;2023-04-03T16:30:15;5.60;;;2.80;;
57337;SDS011;43173;50.980;18.204;2023-04-03T16:32:41;6.30;;;2.70;;
57337;SDS011;43173;50.980;18.204;2023-04-03T16:35:07;4.20;;;2.10;;
57337;SDS011;43173;50.980;18.204;2023-04-03T16:37:37;4.10;;;2.30;;
57337;SDS011;43173;50.980;18.204;2023-04-03T16:40:04;4.30;;;2.10;;
57337;SDS011;43173;50.980;18.204;2023-04-03T16:42:31;4.80;;;2.20;;
57337;SDS011;43173;50.980;18.204;2023-04-03T16:44:57;6.70;;;2.60;;
57337;SDS011;43173;50.980;18.204;2023-04-03T16:47:25;5.30;;;2.70;;
57337;SDS011;43173;50.980;18.204;2023-04-03T16:49:50;5.20;;;2.40;;
57337;SDS011;43173;50.980;18.204;2023-04-03T16:52:16;5.20;;;2.60;;
57337;SDS011;43173;50.980;18.204;2023-04-03T16:54:42;6.00;;;2.70;;
57337;SDS011;43173;50.980;18.204;2023-04-03T16:57:07;5.40;;;2.40;;
57337;SDS011;43173;50.980;18.204;2023-04-03T16:59:33;5.80;;;2.50;;
57337;SDS011;43173;50.980;18.204;2023-04-03T17:01:59;3.10;;;2.10;;
57337;SDS011;43173;50.980;18.204;2023-04-03T17:04:24;7.20;;;2.80;;
57337;SDS011;43173;50.980;18.204;2023-04-03T17:06:51;6.80;;;2.90;;
57337;SDS011;43173;50.980;18.204;2023-04-03T17:09:17;5.60;;;3.00;;
57337;SDS011;43173;50.980;18.204;2023-04-03T17:11:42;5.80;;;3.30;;